Mora, Missouri
Current Conditions -  °F | °C
As of 5:53 AM on Saturday 25 Oct 2014 (Local Time) from KDMO Reporting Station
Haze Haze  
Wind Chill: 61°   Ceiling: Unl
Heat Index: 61°   Visibility: 6mi
Dew Point: 58°   Wind: 5mph
Humidity: 90%   Direction: 240°WSW
Pressure: 30.03"   Gusts: NA
Location:  38.52°N, 93.22°W
Report Text: KDMO 251053Z AUTO 24004KT 6SM BR CLR 16/14 A3003 RMK AO2 SLP166 T01610144
Loading
Personal Weather Stations






























Interactive Weather Map
Tropical Storm Tracking
New forecast layout! Learn more

10-Day Weather Forecast

Advertisements
Track Severe Weather on mobile